KCGZ/CGZ METAR and TAF weather

Enter ICAO airport designator
Station Type Date Time Source
KCGZ METAR 2022/01/19 18:56 UTC NOAA

KCGZ 191856Z AUTO 21003KT 10SM FEW080 17/06 A3012 RMK AO2 SLP197 T01670061


Station Type Date Time Source
KCGZ Decoded METAR 2022/01/19 18:56 UTC NOAA

Casa Grande, Casa Grande Municipal Airport, AZ, United States (KCGZ) 32-57N 111-46W
Jan 19, 2022 - 01:56 PM EST / 2022.01.19 1856 UTC
Wind: from the SSW (210 degrees) at 3 MPH (3 KT):0
Visibility: 10 mile(s):0
Sky conditions: mostly clear
Temperature: 62.1 F (16.7 C)
Dew Point: 43.0 F (6.1 C)
Relative Humidity: 49%
Pressure (altimeter): 30.12 in. Hg (1019 hPa)
ob: KCGZ 191856Z AUTO 21003KT 10SM FEW080 17/06 A3012 RMK AO2 SLP197 T01670061
cycle: 19

Station Type Date Time Source
KCGZ TAF UTC NOAA

Error!

Example: see airport list